sensor_id;sensor_type;location;lat;lon;timestamp;temperature;humidity
7598;DHT22;3840;59.32098800;18.06423600;2023-04-12T00:00:05;5.00;99.90
7598;DHT22;3840;59.32098800;18.06423600;2023-04-12T00:02:35;5.00;99.90
7598;DHT22;3840;59.32098800;18.06423600;2023-04-12T00:05:02;5.10;99.90
7598;DHT22;3840;59.32098800;18.06423600;2023-04-12T00:07:27;5.00;99.90
7598;DHT22;3840;59.32098800;18.06423600;2023-04-12T00:09:54;4.90;99.90
7598;DHT22;3840;59.32098800;18.06423600;2023-04-12T00:12:20;4.90;99.90
7598;DHT22;3840;59.32098800;18.06423600;2023-04-12T00:14:46;4.80;99.90
7598;DHT22;3840;59.32098800;18.06423600;2023-04-12T00:17:13;4.90;99.90
7598;DHT22;3840;59.32098800;18.06423600;2023-04-12T00:19:39;5.00;99.90
7598;DHT22;3840;59.32098800;18.06423600;2023-04-12T00:22:09;5.10;99.90
7598;DHT22;3840;59.32098800;18.06423600;2023-04-12T00:24:38;5.30;99.90
7598;DHT22;3840;59.32098800;18.06423600;2023-04-12T00:27:04;5.40;99.90
7598;DHT22;3840;59.32098800;18.06423600;2023-04-12T00:29:31;5.50;99.90
7598;DHT22;3840;59.32098800;18.06423600;2023-04-12T00:31:57;5.70;99.90
7598;DHT22;3840;59.32098800;18.06423600;2023-04-12T00:34:24;5.80;99.90
7598;DHT22;3840;59.32098800;18.06423600;2023-04-12T00:36:50;5.90;99.90
7598;DHT22;3840;59.32098800;18.06423600;2023-04-12T00:39:15;6.00;99.90
7598;DHT22;3840;59.32098800;18.06423600;2023-04-12T00:41:41;5.90;99.90
7598;DHT22;3840;59.32098800;18.06423600;2023-04-12T00:44:07;5.80;99.90
7598;DHT22;3840;59.32098800;18.06423600;2023-04-12T00:46:32;5.80;99.90
7598;DHT22;3840;59.32098800;18.06423600;2023-04-12T00:48:59;5.40;99.90
7598;DHT22;3840;59.32098800;18.06423600;2023-04-12T00:51:27;5.60;99.90
7598;DHT22;3840;59.32098800;18.06423600;2023-04-12T00:53:57;5.60;99.90
7598;DHT22;3840;59.32098800;18.06423600;2023-04-12T00:56:24;5.50;99.90
7598;DHT22;3840;59.32098800;18.06423600;2023-04-12T00:58:53;5.50;99.90
7598;DHT22;3840;59.32098800;18.06423600;2023-04-12T01:01:19;5.60;99.90
7598;DHT22;3840;59.32098800;18.06423600;2023-04-12T01:03:47;5.60;99.90
7598;DHT22;3840;59.32098800;18.06423600;2023-04-12T01:11:24;5.70;99.90
7598;DHT22;3840;59.32098800;18.06423600;2023-04-12T01:14:02;5.60;99.90
7598;DHT22;3840;59.32098800;18.06423600;2023-04-12T01:16:41;5.40;99.90
7598;DHT22;3840;59.32098800;18.06423600;2023-04-12T01:28:21;4.90;99.90
7598;DHT22;3840;59.32098800;18.06423600;2023-04-12T01:30:50;4.70;99.90
7598;DHT22;3840;59.32098800;18.06423600;2023-04-12T01:33:17;4.60;99.90
7598;DHT22;3840;59.32098800;18.06423600;2023-04-12T01:35:43;4.70;99.90
7598;DHT22;3840;59.32098800;18.06423600;2023-04-12T01:38:09;4.60;99.90
7598;DHT22;3840;59.32098800;18.06423600;2023-04-12T01:40:35;4.40;99.90
7598;DHT22;3840;59.32098800;18.06423600;2023-04-12T01:43:10;4.20;99.90
7598;DHT22;3840;59.32098800;18.06423600;2023-04-12T01:45:36;4.20;99.90
7598;DHT22;3840;59.32098800;18.06423600;2023-04-12T01:48:04;4.40;99.90
7598;DHT22;3840;59.32098800;18.06423600;2023-04-12T01:53:53;4.70;99.90
7598;DHT22;3840;59.32098800;18.06423600;2023-04-12T01:55:58;5.10;99.90
7598;DHT22;3840;59.32098800;18.06423600;2023-04-12T01:58:25;5.00;99.90
7598;DHT22;3840;59.32098800;18.06423600;2023-04-12T02:00:54;5.10;99.90
7598;DHT22;3840;59.32098800;18.06423600;2023-04-12T02:03:22;5.30;99.90
7598;DHT22;3840;59.32098800;18.06423600;2023-04-12T02:05:50;5.40;99.90
7598;DHT22;3840;59.32098800;18.06423600;2023-04-12T02:08:16;5.50;99.90
7598;DHT22;3840;59.32098800;18.06423600;2023-04-12T02:10:42;5.60;99.90
7598;DHT22;3840;59.32098800;18.06423600;2023-04-12T02:13:08;5.60;99.90
7598;DHT22;3840;59.32098800;18.06423600;2023-04-12T02:15:33;5.60;99.90
7598;DHT22;3840;59.32098800;18.06423600;2023-04-12T02:18:01;5.60;99.90
7598;DHT22;3840;59.32098800;18.06423600;2023-04-12T02:20:27;5.70;99.90
7598;DHT22;3840;59.32098800;18.06423600;2023-04-12T02:22:54;5.70;99.90
7598;DHT22;3840;59.32098800;18.06423600;2023-04-12T02:25:19;5.70;99.90
7598;DHT22;3840;59.32098800;18.06423600;2023-04-12T02:27:45;5.70;99.90
7598;DHT22;3840;59.32098800;18.06423600;2023-04-12T02:30:13;5.70;99.90
7598;DHT22;3840;59.32098800;18.06423600;2023-04-12T02:32:39;5.60;99.90
7598;DHT22;3840;59.32098800;18.06423600;2023-04-12T02:35:12;5.60;99.90
7598;DHT22;3840;59.32098800;18.06423600;2023-04-12T02:37:39;5.60;99.90
7598;DHT22;3840;59.32098800;18.06423600;2023-04-12T02:40:05;5.50;99.90
7598;DHT22;3840;59.32098800;18.06423600;2023-04-12T02:42:34;5.50;99.90
7598;DHT22;3840;59.32098800;18.06423600;2023-04-12T02:45:00;5.30;99.90
7598;DHT22;3840;59.32098800;18.06423600;2023-04-12T02:47:26;5.20;99.90
7598;DHT22;3840;59.32098800;18.06423600;2023-04-12T02:49:53;5.10;99.90
7598;DHT22;3840;59.32098800;18.06423600;2023-04-12T02:52:19;5.00;99.90
7598;DHT22;3840;59.32098800;18.06423600;2023-04-12T02:54:45;5.00;99.90
7598;DHT22;3840;59.32098800;18.06423600;2023-04-12T02:57:11;5.00;99.90
7598;DHT22;3840;59.32098800;18.06423600;2023-04-12T02:59:38;5.00;99.90
7598;DHT22;3840;59.32098800;18.06423600;2023-04-12T03:02:03;4.90;99.90
7598;DHT22;3840;59.32098800;18.06423600;2023-04-12T03:04:29;5.00;99.90
7598;DHT22;3840;59.32098800;18.06423600;2023-04-12T03:06:58;5.00;99.90
7598;DHT22;3840;59.32098800;18.06423600;2023-04-12T03:09:23;5.10;99.90
7598;DHT22;3840;59.32098800;18.06423600;2023-04-12T03:11:50;5.10;99.90
7598;DHT22;3840;59.32098800;18.06423600;2023-04-12T03:14:16;5.10;99.90
7598;DHT22;3840;59.32098800;18.06423600;2023-04-12T03:16:41;5.10;99.90
7598;DHT22;3840;59.32098800;18.06423600;2023-04-12T03:19:07;5.10;99.90
7598;DHT22;3840;59.32098800;18.06423600;2023-04-12T03:21:33;5.10;99.90
7598;DHT22;3840;59.32098800;18.06423600;2023-04-12T03:24:00;5.10;99.90
7598;DHT22;3840;59.32098800;18.06423600;2023-04-12T03:26:26;5.10;99.90
7598;DHT22;3840;59.32098800;18.06423600;2023-04-12T03:28:57;5.20;99.90
7598;DHT22;3840;59.32098800;18.06423600;2023-04-12T03:31:23;5.20;99.90
7598;DHT22;3840;59.32098800;18.06423600;2023-04-12T03:33:49;5.10;99.90
7598;DHT22;3840;59.32098800;18.06423600;2023-04-12T03:36:14;5.10;99.90
7598;DHT22;3840;59.32098800;18.06423600;2023-04-12T03:38:40;5.00;99.90
7598;DHT22;3840;59.32098800;18.06423600;2023-04-12T03:41:06;5.00;99.90
7598;DHT22;3840;59.32098800;18.06423600;2023-04-12T03:43:32;5.00;99.90
7598;DHT22;3840;59.32098800;18.06423600;2023-04-12T03:46:02;5.00;99.90
7598;DHT22;3840;59.32098800;18.06423600;2023-04-12T03:48:28;5.10;99.90
7598;DHT22;3840;59.32098800;18.06423600;2023-04-12T03:50:54;5.20;99.90
7598;DHT22;3840;59.32098800;18.06423600;2023-04-12T03:53:20;5.20;99.90
7598;DHT22;3840;59.32098800;18.06423600;2023-04-12T03:55:46;5.20;99.90
7598;DHT22;3840;59.32098800;18.06423600;2023-04-12T03:58:12;5.20;99.90
7598;DHT22;3840;59.32098800;18.06423600;2023-04-12T04:00:38;5.30;99.90
7598;DHT22;3840;59.32098800;18.06423600;2023-04-12T04:03:04;5.40;99.90
7598;DHT22;3840;59.32098800;18.06423600;2023-04-12T04:05:30;5.60;99.90
7598;DHT22;3840;59.32098800;18.06423600;2023-04-12T04:07:58;5.70;99.90
7598;DHT22;3840;59.32098800;18.06423600;2023-04-12T04:10:27;5.80;99.90
7598;DHT22;3840;59.32098800;18.06423600;2023-04-12T04:12:53;5.90;99.90
7598;DHT22;3840;59.32098800;18.06423600;2023-04-12T04:15:19;6.10;99.90
7598;DHT22;3840;59.32098800;18.06423600;2023-04-12T04:17:45;6.40;99.90
7598;DHT22;3840;59.32098800;18.06423600;2023-04-12T04:20:12;6.60;99.90
7598;DHT22;3840;59.32098800;18.06423600;2023-04-12T04:22:40;6.90;99.90
7598;DHT22;3840;59.32098800;18.06423600;2023-04-12T04:25:07;7.00;99.90
7598;DHT22;3840;59.32098800;18.06423600;2023-04-12T04:27:33;6.90;99.90
7598;DHT22;3840;59.32098800;18.06423600;2023-04-12T04:30:03;6.60;99.90
7598;DHT22;3840;59.32098800;18.06423600;2023-04-12T04:32:31;6.30;99.90
7598;DHT22;3840;59.32098800;18.06423600;2023-04-12T04:34:58;6.00;99.90
7598;DHT22;3840;59.32098800;18.06423600;2023-04-12T04:37:25;5.90;99.90
7598;DHT22;3840;59.32098800;18.06423600;2023-04-12T04:39:51;5.80;99.90
7598;DHT22;3840;59.32098800;18.06423600;2023-04-12T04:42:17;5.70;99.90
7598;DHT22;3840;59.32098800;18.06423600;2023-04-12T04:44:43;5.70;99.90
7598;DHT22;3840;59.32098800;18.06423600;2023-04-12T04:47:12;5.60;99.90
7598;DHT22;3840;59.32098800;18.06423600;2023-04-12T04:49:37;5.60;99.90
7598;DHT22;3840;59.32098800;18.06423600;2023-04-12T04:52:03;5.70;99.90
7598;DHT22;3840;59.32098800;18.06423600;2023-04-12T04:54:29;5.70;99.90
7598;DHT22;3840;59.32098800;18.06423600;2023-04-12T04:56:57;5.80;99.90
7598;DHT22;3840;59.32098800;18.06423600;2023-04-12T04:59:23;5.80;99.90
7598;DHT22;3840;59.32098800;18.06423600;2023-04-12T05:01:50;5.80;99.90
7598;DHT22;3840;59.32098800;18.06423600;2023-04-12T05:04:16;5.80;99.90
7598;DHT22;3840;59.32098800;18.06423600;2023-04-12T05:06:42;5.80;99.90
7598;DHT22;3840;59.32098800;18.06423600;2023-04-12T05:09:08;5.90;99.90
7598;DHT22;3840;59.32098800;18.06423600;2023-04-12T05:11:33;5.90;99.90
7598;DHT22;3840;59.32098800;18.06423600;2023-04-12T05:13:59;5.90;99.90
7598;DHT22;3840;59.32098800;18.06423600;2023-04-12T05:16:25;6.00;99.90
7598;DHT22;3840;59.32098800;18.06423600;2023-04-12T05:18:51;5.90;99.90
7598;DHT22;3840;59.32098800;18.06423600;2023-04-12T05:21:17;6.00;99.90
7598;DHT22;3840;59.32098800;18.06423600;2023-04-12T05:23:44;6.10;99.90
7598;DHT22;3840;59.32098800;18.06423600;2023-04-12T05:26:12;6.10;99.90
7598;DHT22;3840;59.32098800;18.06423600;2023-04-12T05:28:38;6.20;99.90
7598;DHT22;3840;59.32098800;18.06423600;2023-04-12T05:31:04;6.20;99.90
7598;DHT22;3840;59.32098800;18.06423600;2023-04-12T05:33:31;6.30;99.90
7598;DHT22;3840;59.32098800;18.06423600;2023-04-12T05:35:59;6.30;99.90
7598;DHT22;3840;59.32098800;18.06423600;2023-04-12T05:38:28;6.40;99.90
7598;DHT22;3840;59.32098800;18.06423600;2023-04-12T05:40:54;6.50;99.90
7598;DHT22;3840;59.32098800;18.06423600;2023-04-12T05:43:19;6.60;99.90
7598;DHT22;3840;59.32098800;18.06423600;2023-04-12T05:45:45;7.60;99.90
7598;DHT22;3840;59.32098800;18.06423600;2023-04-12T05:48:12;6.70;99.90
7598;DHT22;3840;59.32098800;18.06423600;2023-04-12T05:50:38;6.70;99.90
7598;DHT22;3840;59.32098800;18.06423600;2023-04-12T05:53:04;6.80;99.90
7598;DHT22;3840;59.32098800;18.06423600;2023-04-12T05:55:30;6.90;99.90
7598;DHT22;3840;59.32098800;18.06423600;2023-04-12T05:57:57;6.90;99.90
7598;DHT22;3840;59.32098800;18.06423600;2023-04-12T06:00:23;6.90;99.90
7598;DHT22;3840;59.32098800;18.06423600;2023-04-12T06:02:49;7.00;99.90
7598;DHT22;3840;59.32098800;18.06423600;2023-04-12T06:05:16;7.10;99.90
7598;DHT22;3840;59.32098800;18.06423600;2023-04-12T06:07:42;7.10;99.90
7598;DHT22;3840;59.32098800;18.06423600;2023-04-12T06:10:14;7.10;99.90
7598;DHT22;3840;59.32098800;18.06423600;2023-04-12T06:12:41;7.20;99.90
7598;DHT22;3840;59.32098800;18.06423600;2023-04-12T06:15:07;7.30;99.90
7598;DHT22;3840;59.32098800;18.06423600;2023-04-12T06:17:35;7.40;99.90
7598;DHT22;3840;59.32098800;18.06423600;2023-04-12T06:20:02;7.40;99.90
7598;DHT22;3840;59.32098800;18.06423600;2023-04-12T06:22:31;7.50;99.90
7598;DHT22;3840;59.32098800;18.06423600;2023-04-12T06:24:57;7.60;99.90
7598;DHT22;3840;59.32098800;18.06423600;2023-04-12T06:27:23;7.60;99.90
7598;DHT22;3840;59.32098800;18.06423600;2023-04-12T06:29:50;7.60;99.90
7598;DHT22;3840;59.32098800;18.06423600;2023-04-12T06:32:16;7.60;99.90
7598;DHT22;3840;59.32098800;18.06423600;2023-04-12T06:34:42;7.70;99.90
7598;DHT22;3840;59.32098800;18.06423600;2023-04-12T06:37:08;7.80;99.90
7598;DHT22;3840;59.32098800;18.06423600;2023-04-12T06:39:34;7.70;99.90
7598;DHT22;3840;59.32098800;18.06423600;2023-04-12T06:41:59;7.60;99.90
7598;DHT22;3840;59.32098800;18.06423600;2023-04-12T06:44:26;7.60;99.90
7598;DHT22;3840;59.32098800;18.06423600;2023-04-12T06:46:52;7.60;99.90
7598;DHT22;3840;59.32098800;18.06423600;2023-04-12T06:49:18;7.70;99.90
7598;DHT22;3840;59.32098800;18.06423600;2023-04-12T06:51:43;7.80;99.90
7598;DHT22;3840;59.32098800;18.06423600;2023-04-12T06:54:10;7.80;99.90
7598;DHT22;3840;59.32098800;18.06423600;2023-04-12T06:56:36;7.90;99.90
7598;DHT22;3840;59.32098800;18.06423600;2023-04-12T06:59:04;8.00;99.90
7598;DHT22;3840;59.32098800;18.06423600;2023-04-12T07:01:30;8.00;99.90
7598;DHT22;3840;59.32098800;18.06423600;2023-04-12T07:03:56;8.10;99.90
7598;DHT22;3840;59.32098800;18.06423600;2023-04-12T07:06:21;8.10;99.90
7598;DHT22;3840;59.32098800;18.06423600;2023-04-12T07:08:47;8.10;99.90
7598;DHT22;3840;59.32098800;18.06423600;2023-04-12T07:11:14;8.30;99.90
7598;DHT22;3840;59.32098800;18.06423600;2023-04-12T07:13:40;8.40;99.90
7598;DHT22;3840;59.32098800;18.06423600;2023-04-12T07:16:05;8.30;99.90
7598;DHT22;3840;59.32098800;18.06423600;2023-04-12T07:18:31;8.40;99.90
7598;DHT22;3840;59.32098800;18.06423600;2023-04-12T07:20:57;8.50;99.90
7598;DHT22;3840;59.32098800;18.06423600;2023-04-12T07:23:23;8.50;99.90
7598;DHT22;3840;59.32098800;18.06423600;2023-04-12T07:25:50;8.60;99.90
7598;DHT22;3840;59.32098800;18.06423600;2023-04-12T07:28:17;8.70;99.90
7598;DHT22;3840;59.32098800;18.06423600;2023-04-12T07:30:43;8.80;99.90
7598;DHT22;3840;59.32098800;18.06423600;2023-04-12T07:33:09;8.80;99.90
7598;DHT22;3840;59.32098800;18.06423600;2023-04-12T07:35:34;8.80;99.90
7598;DHT22;3840;59.32098800;18.06423600;2023-04-12T07:38:00;8.90;99.90
7598;DHT22;3840;59.32098800;18.06423600;2023-04-12T07:40:26;8.90;99.90
7598;DHT22;3840;59.32098800;18.06423600;2023-04-12T07:42:52;9.00;99.90
7598;DHT22;3840;59.32098800;18.06423600;2023-04-12T07:45:19;9.00;99.90
7598;DHT22;3840;59.32098800;18.06423600;2023-04-12T07:47:45;9.10;99.90
7598;DHT22;3840;59.32098800;18.06423600;2023-04-12T07:50:12;9.30;99.90
7598;DHT22;3840;59.32098800;18.06423600;2023-04-12T07:52:38;9.30;99.90
7598;DHT22;3840;59.32098800;18.06423600;2023-04-12T07:55:05;9.40;99.90
7598;DHT22;3840;59.32098800;18.06423600;2023-04-12T07:57:31;9.50;99.90
7598;DHT22;3840;59.32098800;18.06423600;2023-04-12T07:59:56;9.60;99.90
7598;DHT22;3840;59.32098800;18.06423600;2023-04-12T08:02:23;9.60;99.90
7598;DHT22;3840;59.32098800;18.06423600;2023-04-12T08:04:55;9.70;99.90
7598;DHT22;3840;59.32098800;18.06423600;2023-04-12T08:07:20;9.70;99.90
7598;DHT22;3840;59.32098800;18.06423600;2023-04-12T08:09:47;9.80;99.90
7598;DHT22;3840;59.32098800;18.06423600;2023-04-12T08:12:13;9.80;99.90
7598;DHT22;3840;59.32098800;18.06423600;2023-04-12T08:14:39;9.80;99.90
7598;DHT22;3840;59.32098800;18.06423600;2023-04-12T08:17:06;9.90;99.90
7598;DHT22;3840;59.32098800;18.06423600;2023-04-12T08:19:31;10.00;99.90
7598;DHT22;3840;59.32098800;18.06423600;2023-04-12T08:21:57;10.00;99.90
7598;DHT22;3840;59.32098800;18.06423600;2023-04-12T08:24:23;10.10;99.90
7598;DHT22;3840;59.32098800;18.06423600;2023-04-12T08:26:52;10.10;99.90
7598;DHT22;3840;59.32098800;18.06423600;2023-04-12T08:29:18;10.10;99.90
7598;DHT22;3840;59.32098800;18.06423600;2023-04-12T08:31:44;10.10;99.90
7598;DHT22;3840;59.32098800;18.06423600;2023-04-12T08:34:10;10.10;99.90
7598;DHT22;3840;59.32098800;18.06423600;2023-04-12T08:36:36;10.30;99.90
7598;DHT22;3840;59.32098800;18.06423600;2023-04-12T08:39:02;10.40;99.90
7598;DHT22;3840;59.32098800;18.06423600;2023-04-12T08:41:28;10.40;99.90
7598;DHT22;3840;59.32098800;18.06423600;2023-04-12T08:43:54;10.40;99.90
7598;DHT22;3840;59.32098800;18.06423600;2023-04-12T08:46:20;10.40;99.90
7598;DHT22;3840;59.32098800;18.06423600;2023-04-12T08:48:48;10.50;99.90
7598;DHT22;3840;59.32098800;18.06423600;2023-04-12T08:51:17;10.50;99.90
7598;DHT22;3840;59.32098800;18.06423600;2023-04-12T08:53:43;10.50;99.90
7598;DHT22;3840;59.32098800;18.06423600;2023-04-12T08:56:10;10.50;99.90
7598;DHT22;3840;59.32098800;18.06423600;2023-04-12T08:58:42;10.50;99.90
7598;DHT22;3840;59.32098800;18.06423600;2023-04-12T09:01:14;10.60;99.90
7598;DHT22;3840;59.32098800;18.06423600;2023-04-12T09:03:53;10.60;99.90
7598;DHT22;3840;59.32098800;18.06423600;2023-04-12T09:06:19;10.70;99.90
7598;DHT22;3840;59.32098800;18.06423600;2023-04-12T09:08:53;10.80;99.90
7598;DHT22;3840;59.32098800;18.06423600;2023-04-12T09:11:26;10.80;99.90
7598;DHT22;3840;59.32098800;18.06423600;2023-04-12T09:13:55;10.90;99.90
7598;DHT22;3840;59.32098800;18.06423600;2023-04-12T09:16:38;10.90;99.90
7598;DHT22;3840;59.32098800;18.06423600;2023-04-12T09:19:05;11.00;99.90
7598;DHT22;3840;59.32098800;18.06423600;2023-04-12T09:21:33;11.10;99.90
7598;DHT22;3840;59.32098800;18.06423600;2023-04-12T09:24:08;11.20;99.90
7598;DHT22;3840;59.32098800;18.06423600;2023-04-12T09:26:37;11.20;99.90
7598;DHT22;3840;59.32098800;18.06423600;2023-04-12T09:29:04;11.50;99.90
7598;DHT22;3840;59.32098800;18.06423600;2023-04-12T09:31:30;11.40;99.90
7598;DHT22;3840;59.32098800;18.06423600;2023-04-12T09:34:07;11.20;99.90
7598;DHT22;3840;59.32098800;18.06423600;2023-04-12T09:36:40;11.40;99.90
7598;DHT22;3840;59.32098800;18.06423600;2023-04-12T09:39:06;11.50;99.90
7598;DHT22;3840;59.32098800;18.06423600;2023-04-12T09:41:33;11.40;99.90
7598;DHT22;3840;59.32098800;18.06423600;2023-04-12T09:44:00;11.40;99.90
7598;DHT22;3840;59.32098800;18.06423600;2023-04-12T09:46:26;11.40;99.90
7598;DHT22;3840;59.32098800;18.06423600;2023-04-12T09:48:53;11.40;99.90
7598;DHT22;3840;59.32098800;18.06423600;2023-04-12T09:51:24;11.40;99.90
7598;DHT22;3840;59.32098800;18.06423600;2023-04-12T09:53:51;11.40;99.90
7598;DHT22;3840;59.32098800;18.06423600;2023-04-12T09:56:18;11.40;99.90
7598;DHT22;3840;59.32098800;18.06423600;2023-04-12T09:58:50;11.40;99.90
7598;DHT22;3840;59.32098800;18.06423600;2023-04-12T10:01:16;11.40;99.90
7598;DHT22;3840;59.32098800;18.06423600;2023-04-12T10:03:42;11.20;99.90
7598;DHT22;3840;59.32098800;18.06423600;2023-04-12T10:06:08;11.20;99.90
7598;DHT22;3840;59.32098800;18.06423600;2023-04-12T10:08:36;11.20;99.90
7598;DHT22;3840;59.32098800;18.06423600;2023-04-12T10:11:02;11.30;99.90
7598;DHT22;3840;59.32098800;18.06423600;2023-04-12T10:13:31;11.50;99.90
7598;DHT22;3840;59.32098800;18.06423600;2023-04-12T10:15:59;11.50;99.90
7598;DHT22;3840;59.32098800;18.06423600;2023-04-12T10:18:26;11.50;99.90
7598;DHT22;3840;59.32098800;18.06423600;2023-04-12T10:20:52;11.50;99.90
7598;DHT22;3840;59.32098800;18.06423600;2023-04-12T10:23:18;11.60;99.90
7598;DHT22;3840;59.32098800;18.06423600;2023-04-12T10:25:47;11.60;99.90
7598;DHT22;3840;59.32098800;18.06423600;2023-04-12T10:28:18;11.50;99.90
7598;DHT22;3840;59.32098800;18.06423600;2023-04-12T10:30:46;11.50;99.90
7598;DHT22;3840;59.32098800;18.06423600;2023-04-12T10:33:23;11.50;99.90
7598;DHT22;3840;59.32098800;18.06423600;2023-04-12T10:35:56;11.40;99.90
7598;DHT22;3840;59.32098800;18.06423600;2023-04-12T10:38:24;11.30;99.90
7598;DHT22;3840;59.32098800;18.06423600;2023-04-12T10:43:38;11.30;99.90
7598;DHT22;3840;59.32098800;18.06423600;2023-04-12T10:49:08;11.40;99.90
7598;DHT22;3840;59.32098800;18.06423600;2023-04-12T10:51:34;11.50;99.90
7598;DHT22;3840;59.32098800;18.06423600;2023-04-12T10:59:02;11.60;99.90
7598;DHT22;3840;59.32098800;18.06423600;2023-04-12T11:01:28;11.70;99.90
7598;DHT22;3840;59.32098800;18.06423600;2023-04-12T11:06:53;11.80;99.90
7598;DHT22;3840;59.32098800;18.06423600;2023-04-12T11:09:43;11.80;99.90
7598;DHT22;3840;59.32098800;18.06423600;2023-04-12T11:12:10;11.80;99.90
7598;DHT22;3840;59.32098800;18.06423600;2023-04-12T11:14:48;11.90;99.90
7598;DHT22;3840;59.32098800;18.06423600;2023-04-12T11:19:48;11.90;99.90
7598;DHT22;3840;59.32098800;18.06423600;2023-04-12T11:22:19;11.90;99.90
7598;DHT22;3840;59.32098800;18.06423600;2023-04-12T11:24:46;11.90;99.90
7598;DHT22;3840;59.32098800;18.06423600;2023-04-12T11:27:13;12.00;99.90
7598;DHT22;3840;59.32098800;18.06423600;2023-04-12T11:29:41;12.00;99.90
7598;DHT22;3840;59.32098800;18.06423600;2023-04-12T11:32:12;12.00;99.90
7598;DHT22;3840;59.32098800;18.06423600;2023-04-12T11:34:38;11.80;99.90
7598;DHT22;3840;59.32098800;18.06423600;2023-04-12T11:37:06;11.90;99.90
7598;DHT22;3840;59.32098800;18.06423600;2023-04-12T11:39:38;11.80;99.90
7598;DHT22;3840;59.32098800;18.06423600;2023-04-12T11:42:04;11.80;99.90
7598;DHT22;3840;59.32098800;18.06423600;2023-04-12T11:44:33;11.70;99.90
7598;DHT22;3840;59.32098800;18.06423600;2023-04-12T11:47:00;11.70;99.90
7598;DHT22;3840;59.32098800;18.06423600;2023-04-12T11:49:26;11.70;99.90
7598;DHT22;3840;59.32098800;18.06423600;2023-04-12T11:52:19;11.70;99.90
7598;DHT22;3840;59.32098800;18.06423600;2023-04-12T11:54:47;11.80;99.90
7598;DHT22;3840;59.32098800;18.06423600;2023-04-12T11:57:17;11.80;99.90
7598;DHT22;3840;59.32098800;18.06423600;2023-04-12T11:59:46;11.80;99.90
7598;DHT22;3840;59.32098800;18.06423600;2023-04-12T12:02:13;11.80;99.90
7598;DHT22;3840;59.32098800;18.06423600;2023-04-12T12:04:43;11.80;99.90
7598;DHT22;3840;59.32098800;18.06423600;2023-04-12T12:07:14;11.80;99.90
7598;DHT22;3840;59.32098800;18.06423600;2023-04-12T12:09:44;11.80;99.90
7598;DHT22;3840;59.32098800;18.06423600;2023-04-12T12:12:11;11.90;99.90
7598;DHT22;3840;59.32098800;18.06423600;2023-04-12T12:14:38;11.90;99.90
7598;DHT22;3840;59.32098800;18.06423600;2023-04-12T12:17:12;11.80;99.90
7598;DHT22;3840;59.32098800;18.06423600;2023-04-12T12:19:39;11.70;99.90
7598;DHT22;3840;59.32098800;18.06423600;2023-04-12T12:24:31;11.80;99.90
7598;DHT22;3840;59.32098800;18.06423600;2023-04-12T12:27:01;11.80;99.90
7598;DHT22;3840;59.32098800;18.06423600;2023-04-12T12:29:33;11.80;99.90
7598;DHT22;3840;59.32098800;18.06423600;2023-04-12T12:32:00;11.80;99.90
7598;DHT22;3840;59.32098800;18.06423600;2023-04-12T12:34:31;11.90;99.90
7598;DHT22;3840;59.32098800;18.06423600;2023-04-12T12:36:58;11.90;99.90
7598;DHT22;3840;59.32098800;18.06423600;2023-04-12T12:39:23;11.90;99.90
7598;DHT22;3840;59.32098800;18.06423600;2023-04-12T12:41:53;11.90;99.90
7598;DHT22;3840;59.32098800;18.06423600;2023-04-12T12:44:24;11.90;99.90
7598;DHT22;3840;59.32098800;18.06423600;2023-04-12T12:46:51;12.00;99.90
7598;DHT22;3840;59.32098800;18.06423600;2023-04-12T12:49:17;11.90;99.90
7598;DHT22;3840;59.32098800;18.06423600;2023-04-12T12:51:43;11.90;99.90
7598;DHT22;3840;59.32098800;18.06423600;2023-04-12T12:54:09;12.00;99.90
7598;DHT22;3840;59.32098800;18.06423600;2023-04-12T12:56:34;11.90;99.90
7598;DHT22;3840;59.32098800;18.06423600;2023-04-12T12:59:00;11.80;99.90
7598;DHT22;3840;59.32098800;18.06423600;2023-04-12T13:01:28;11.80;99.90
7598;DHT22;3840;59.32098800;18.06423600;2023-04-12T13:03:54;11.70;99.90
7598;DHT22;3840;59.32098800;18.06423600;2023-04-12T13:06:21;11.70;99.90
7598;DHT22;3840;59.32098800;18.06423600;2023-04-12T13:08:47;11.70;99.90
7598;DHT22;3840;59.32098800;18.06423600;2023-04-12T13:11:13;11.70;99.90
7598;DHT22;3840;59.32098800;18.06423600;2023-04-12T13:13:39;11.80;99.90
7598;DHT22;3840;59.32098800;18.06423600;2023-04-12T13:16:05;11.80;99.90
7598;DHT22;3840;59.32098800;18.06423600;2023-04-12T13:18:30;11.80;99.90
7598;DHT22;3840;59.32098800;18.06423600;2023-04-12T13:20:56;11.90;99.90
7598;DHT22;3840;59.32098800;18.06423600;2023-04-12T13:23:22;12.00;99.90
7598;DHT22;3840;59.32098800;18.06423600;2023-04-12T13:25:47;12.10;99.90
7598;DHT22;3840;59.32098800;18.06423600;2023-04-12T13:28:13;12.10;99.90
7598;DHT22;3840;59.32098800;18.06423600;2023-04-12T13:30:41;12.00;99.90
7598;DHT22;3840;59.32098800;18.06423600;2023-04-12T13:33:07;12.10;99.90
7598;DHT22;3840;59.32098800;18.06423600;2023-04-12T13:35:33;12.20;99.90
7598;DHT22;3840;59.32098800;18.06423600;2023-04-12T13:37:59;12.30;99.90
7598;DHT22;3840;59.32098800;18.06423600;2023-04-12T13:40:24;12.30;99.90
7598;DHT22;3840;59.32098800;18.06423600;2023-04-12T13:42:50;12.30;99.90
7598;DHT22;3840;59.32098800;18.06423600;2023-04-12T13:45:16;12.40;99.90
7598;DHT22;3840;59.32098800;18.06423600;2023-04-12T13:47:42;12.40;99.90
7598;DHT22;3840;59.32098800;18.06423600;2023-04-12T13:50:08;12.60;99.90
7598;DHT22;3840;59.32098800;18.06423600;2023-04-12T13:52:34;12.60;99.90
7598;DHT22;3840;59.32098800;18.06423600;2023-04-12T13:55:01;12.80;99.90
7598;DHT22;3840;59.32098800;18.06423600;2023-04-12T13:57:29;12.80;99.90
7598;DHT22;3840;59.32098800;18.06423600;2023-04-12T13:59:54;13.00;99.90
7598;DHT22;3840;59.32098800;18.06423600;2023-04-12T14:02:22;13.10;99.90
7598;DHT22;3840;59.32098800;18.06423600;2023-04-12T14:04:52;13.20;99.90
7598;DHT22;3840;59.32098800;18.06423600;2023-04-12T14:07:19;13.30;99.90
7598;DHT22;3840;59.32098800;18.06423600;2023-04-12T14:09:45;13.20;99.90
7598;DHT22;3840;59.32098800;18.06423600;2023-04-12T14:12:13;13.20;99.90
7598;DHT22;3840;59.32098800;18.06423600;2023-04-12T14:14:39;13.10;99.90
7598;DHT22;3840;59.32098800;18.06423600;2023-04-12T14:17:05;13.00;99.90